Time;durP1;ratioP1;P1;durP2;ratioP2;P2;SDS_P1;SDS_P2;PMS_P1;PMS_P2;Temp;Humidity;BMP_temperature;BMP_pressure;BME280_temperature;BME280_humidity;BME280_pressure;Samples;Min_cycle;Max_cycle;Signal;HPM_P1;HPM_P2
2023/04/19 00:01:13;;;;;;;;;;;9.60;99.90;;;;;;5074755;28;20029;-74
2023/04/19 00:03:39;;;;;;;;;;;9.60;99.90;;;;;;5070358;28;19947;-73
2023/04/19 00:06:07;;;;;;;;;;;9.50;99.90;;;;;;5086411;28;19933;-74
2023/04/19 00:08:32;;;;;;;;;;;9.50;99.90;;;;;;5103937;28;19931;-74
2023/04/19 00:10:58;;;;;;;;;;;9.40;99.90;;;;;;5075715;28;20286;-74
2023/04/19 00:13:23;;;;;;;;;;;9.30;99.90;;;;;;5062506;28;20378;-74
2023/04/19 00:15:49;;;;;;;;;;;9.30;99.90;;;;;;5088473;28;19924;-74
2023/04/19 00:18:14;;;;;;;;;;;9.20;99.90;;;;;;5105107;28;19924;-74
2023/04/19 00:20:40;;;;;;;;;;;9.10;99.90;;;;;;5087404;28;19928;-74
2023/04/19 00:23:05;;;;;;;;;;;9.10;99.90;;;;;;5071026;28;19924;-73
2023/04/19 00:25:33;;;;;;;;;;;9.00;99.90;;;;;;5087882;28;19931;-73
2023/04/19 00:27:59;;;;;;;;;;;9.00;99.90;;;;;;5088451;28;20281;-73
2023/04/19 00:30:24;;;;;;;;;;;8.90;99.90;;;;;;5085753;28;19930;-74
2023/04/19 00:32:50;;;;;;;;;;;8.90;99.90;;;;;;5088168;28;20447;-73
2023/04/19 00:35:15;;;;;;;;;;;8.80;99.90;;;;;;5086026;28;19924;-74
2023/04/19 00:37:41;;;;;;;;;;;8.80;99.90;;;;;;5092257;28;19932;-74
2023/04/19 00:40:06;;;;;;;;;;;8.80;99.90;;;;;;5051095;28;20015;-73
2023/04/19 00:42:32;;;;;;;;;;;8.70;99.90;;;;;;5079827;28;20292;-74
2023/04/19 00:44:57;;;;;;;;;;;8.70;99.90;;;;;;5055750;28;20389;-73
2023/04/19 00:47:23;;;;;;;;;;;8.60;99.90;;;;;;5077011;28;19956;-74
2023/04/19 00:49:49;;;;;;;;;;;8.60;99.90;;;;;;5082926;28;20018;-73
2023/04/19 00:52:14;;;;;;;;;;;8.50;99.90;;;;;;5101987;28;19924;-74
2023/04/19 00:54:42;;;;;;;;;;;8.50;99.90;;;;;;5082821;28;19924;-73
2023/04/19 00:57:07;;;;;;;;;;;8.50;99.90;;;;;;5067114;28;20577;-74
2023/04/19 00:59:33;;;;;;;;;;;8.50;99.90;;;;;;5077164;28;20390;-74
2023/04/19 01:01:59;;;;;;;;;;;8.50;99.90;;;;;;5062708;28;20301;-73
2023/04/19 01:04:24;;;;;;;;;;;8.40;99.90;;;;;;5076850;28;19925;-73
2023/04/19 01:06:50;;;;;;;;;;;8.40;99.90;;;;;;5076016;28;19970;-74
2023/04/19 01:09:15;;;;;;;;;;;8.40;99.90;;;;;;5043259;28;19925;-73
2023/04/19 01:11:41;;;;;;;;;;;8.40;99.90;;;;;;5062016;28;19928;-73
2023/04/19 01:14:06;;;;;;;;;;;8.30;99.90;;;;;;5069715;28;20383;-73
2023/04/19 01:16:32;;;;;;;;;;;8.30;99.90;;;;;;5067963;28;19978;-73
2023/04/19 01:18:57;;;;;;;;;;;8.30;99.90;;;;;;5070168;28;19978;-74
2023/04/19 01:21:23;;;;;;;;;;;8.30;99.90;;;;;;5080405;28;19970;-74
2023/04/19 01:23:49;;;;;;;;;;;8.20;99.90;;;;;;5090993;28;19978;-74
2023/04/19 01:26:15;;;;;;;;;;;8.20;99.90;;;;;;5057716;28;19989;-74
2023/04/19 01:28:40;;;;;;;;;;;8.20;99.90;;;;;;5106237;28;20437;-74
2023/04/19 01:31:06;;;;;;;;;;;8.10;99.90;;;;;;5074593;28;19928;-74
2023/04/19 01:33:31;;;;;;;;;;;8.10;99.90;;;;;;5072882;28;19928;-74
2023/04/19 01:35:57;;;;;;;;;;;8.10;99.90;;;;;;5091664;28;20019;-74
2023/04/19 01:38:22;;;;;;;;;;;8.00;99.90;;;;;;5089175;28;19924;-73
2023/04/19 01:40:48;;;;;;;;;;;8.00;99.90;;;;;;5073395;28;20286;-74
2023/04/19 01:43:15;;;;;;;;;;;8.00;99.90;;;;;;5086210;28;20488;-74
2023/04/19 01:45:40;;;;;;;;;;;8.00;99.90;;;;;;5082688;28;19936;-74
2023/04/19 01:48:06;;;;;;;;;;;8.00;99.90;;;;;;5087954;28;19939;-74
2023/04/19 01:50:32;;;;;;;;;;;7.90;99.90;;;;;;5071879;28;19924;-74
2023/04/19 01:52:57;;;;;;;;;;;7.90;99.90;;;;;;5086049;28;19928;-74
2023/04/19 01:55:23;;;;;;;;;;;7.90;99.90;;;;;;5088746;28;19935;-74
2023/04/19 01:57:49;;;;;;;;;;;7.90;99.90;;;;;;5095718;28;20673;-74
2023/04/19 02:00:16;;;;;;;;;;;7.90;99.90;;;;;;5083624;28;20278;-74
2023/04/19 02:02:42;;;;;;;;;;;7.80;99.90;;;;;;5063886;28;20037;-74
2023/04/19 02:05:08;;;;;;;;;;;7.90;99.90;;;;;;5085366;28;20595;-74
2023/04/19 02:07:33;;;;;;;;;;;7.80;99.90;;;;;;5063219;28;20301;-75
2023/04/19 02:09:59;;;;;;;;;;;7.80;99.90;;;;;;5085105;28;19930;-74
2023/04/19 02:12:29;;;;;;;;;;;7.80;99.90;;;;;;5059534;28;19931;-74
2023/04/19 02:14:59;;;;;;;;;;;7.80;99.90;;;;;;5106929;28;19989;-74
2023/04/19 02:17:24;;;;;;;;;;;7.70;99.90;;;;;;5067013;28;19970;-74
2023/04/19 02:19:50;;;;;;;;;;;7.70;99.90;;;;;;5065729;28;20338;-74
2023/04/19 02:22:15;;;;;;;;;;;7.70;99.90;;;;;;5059721;28;19989;-74
2023/04/19 02:24:41;;;;;;;;;;;7.70;99.90;;;;;;5106348;28;19927;-74
2023/04/19 02:27:06;;;;;;;;;;;7.70;99.90;;;;;;5106354;28;19934;-74
2023/04/19 02:29:32;;;;;;;;;;;7.60;99.90;;;;;;5094753;28;19924;-74
2023/04/19 02:31:58;;;;;;;;;;;7.60;99.90;;;;;;5070854;28;20539;-74
2023/04/19 02:34:23;;;;;;;;;;;7.50;99.90;;;;;;5105532;28;19924;-74
2023/04/19 02:36:49;;;;;;;;;;;7.50;99.90;;;;;;5090151;28;19924;-74
2023/04/19 02:39:15;;;;;;;;;;;7.50;99.90;;;;;;5090469;28;20463;-74
2023/04/19 02:41:41;;;;;;;;;;;7.50;99.90;;;;;;5076386;28;20019;-74
2023/04/19 02:44:07;;;;;;;;;;;7.50;99.90;;;;;;5078242;28;20071;-74
2023/04/19 02:46:33;;;;;;;;;;;7.40;99.90;;;;;;5052071;28;20520;-74
2023/04/19 02:49:01;;;;;;;;;;;7.40;99.90;;;;;;5053451;28;19928;-74
2023/04/19 02:51:27;;;;;;;;;;;7.40;99.90;;;;;;5081610;28;19924;-74
2023/04/19 02:53:52;;;;;;;;;;;7.40;99.90;;;;;;5075950;28;20472;-74
2023/04/19 02:56:18;;;;;;;;;;;7.30;99.90;;;;;;5070049;28;19924;-74
2023/04/19 02:58:44;;;;;;;;;;;7.30;99.90;;;;;;5051656;28;19970;-74
2023/04/19 03:01:09;;;;;;;;;;;7.30;99.90;;;;;;5080958;28;19932;-74
2023/04/19 03:03:35;;;;;;;;;;;7.30;99.90;;;;;;5093415;28;19924;-74
2023/04/19 03:06:01;;;;;;;;;;;7.30;99.90;;;;;;5086684;28;20271;-74
2023/04/19 03:08:26;;;;;;;;;;;7.20;99.90;;;;;;5084859;28;20291;-75
2023/04/19 03:10:52;;;;;;;;;;;7.20;99.90;;;;;;5085577;28;20007;-74
2023/04/19 03:13:18;;;;;;;;;;;7.20;99.90;;;;;;5066225;28;19924;-74
2023/04/19 03:15:43;;;;;;;;;;;7.10;99.90;;;;;;5067636;28;19930;-75
2023/04/19 03:18:09;;;;;;;;;;;7.10;99.90;;;;;;5069805;28;19930;-74
2023/04/19 03:20:34;;;;;;;;;;;7.10;99.90;;;;;;5074135;28;20007;-75
2023/04/19 03:23:00;;;;;;;;;;;7.10;99.90;;;;;;5102414;28;19924;-75
2023/04/19 03:25:25;;;;;;;;;;;7.00;99.90;;;;;;5083606;28;19930;-74
2023/04/19 03:27:51;;;;;;;;;;;7.00;99.90;;;;;;5068060;28;19928;-74
2023/04/19 03:30:17;;;;;;;;;;;7.00;99.90;;;;;;5083444;28;19928;-74
2023/04/19 03:32:42;;;;;;;;;;;7.00;99.90;;;;;;5067961;28;20412;-75
2023/04/19 03:35:08;;;;;;;;;;;6.90;99.90;;;;;;5082641;28;19924;-75
2023/04/19 03:37:34;;;;;;;;;;;6.90;99.90;;;;;;5077032;28;19997;-75
2023/04/19 03:40:00;;;;;;;;;;;6.80;99.90;;;;;;5078720;28;19931;-74
2023/04/19 03:42:25;;;;;;;;;;;6.80;99.90;;;;;;5086252;28;19924;-75
2023/04/19 03:44:51;;;;;;;;;;;6.80;99.90;;;;;;5082331;28;19981;-75
2023/04/19 03:47:16;;;;;;;;;;;6.80;99.90;;;;;;5086662;28;19935;-75
2023/04/19 03:49:42;;;;;;;;;;;6.80;99.90;;;;;;5072610;28;19936;-75
2023/04/19 03:52:07;;;;;;;;;;;6.70;99.90;;;;;;5068035;28;19935;-74
2023/04/19 03:54:33;;;;;;;;;;;6.70;99.90;;;;;;5053663;28;19924;-74
2023/04/19 03:56:59;;;;;;;;;;;6.70;99.90;;;;;;5052021;28;20266;-75
2023/04/19 03:59:25;;;;;;;;;;;6.70;99.90;;;;;;5082573;28;20009;-75
2023/04/19 04:01:50;;;;;;;;;;;6.70;99.90;;;;;;5068810;28;19978;-74
2023/04/19 04:04:16;;;;;;;;;;;6.70;99.90;;;;;;5097643;28;19931;-74
2023/04/19 04:06:41;;;;;;;;;;;6.60;99.90;;;;;;5085421;28;20191;-74
2023/04/19 04:09:07;;;;;;;;;;;6.60;99.90;;;;;;5062700;28;19928;-74
2023/04/19 04:11:32;;;;;;;;;;;6.60;99.90;;;;;;5067259;28;19947;-74
2023/04/19 04:13:58;;;;;;;;;;;6.50;99.90;;;;;;5095363;28;20148;-74
2023/04/19 04:16:23;;;;;;;;;;;6.50;99.90;;;;;;5066456;28;20128;-75
2023/04/19 04:18:49;;;;;;;;;;;6.50;99.90;;;;;;5061094;28;19954;-74
2023/04/19 04:21:14;;;;;;;;;;;6.40;99.90;;;;;;5066749;28;20440;-74
2023/04/19 04:23:40;;;;;;;;;;;6.40;99.90;;;;;;5094098;28;19931;-75
2023/04/19 04:26:08;;;;;;;;;;;6.40;99.90;;;;;;5066421;28;20019;-74
2023/04/19 04:28:34;;;;;;;;;;;6.40;99.90;;;;;;5078241;28;20424;-74
2023/04/19 04:31:00;;;;;;;;;;;6.40;99.90;;;;;;5058370;28;20007;-74
2023/04/19 04:33:26;;;;;;;;;;;6.40;99.90;;;;;;5059221;28;20003;-74
2023/04/19 04:35:53;;;;;;;;;;;6.40;99.90;;;;;;5083890;28;19961;-74
2023/04/19 04:38:19;;;;;;;;;;;6.40;99.90;;;;;;5056648;28;19931;-74
2023/04/19 04:40:54;;;;;;;;;;;6.30;99.90;;;;;;5064714;28;20007;-74
2023/04/19 04:43:20;;;;;;;;;;;6.40;99.90;;;;;;5088336;28;20283;-74
2023/04/19 04:45:46;;;;;;;;;;;6.40;99.90;;;;;;5097045;28;19978;-74
2023/04/19 04:48:11;;;;;;;;;;;6.40;99.90;;;;;;5069285;28;20379;-74
2023/04/19 04:50:37;;;;;;;;;;;6.40;99.90;;;;;;5082141;28;19935;-74
2023/04/19 04:53:03;;;;;;;;;;;6.40;99.90;;;;;;5076002;28;20102;-74
2023/04/19 04:55:28;;;;;;;;;;;6.40;99.90;;;;;;5067308;28;19925;-74
2023/04/19 04:57:54;;;;;;;;;;;6.40;99.90;;;;;;5070390;28;19981;-74
2023/04/19 05:00:20;;;;;;;;;;;6.40;99.90;;;;;;5100707;28;20033;-74
2023/04/19 05:02:45;;;;;;;;;;;6.40;99.90;;;;;;5062475;28;19931;-74
2023/04/19 05:05:11;;;;;;;;;;;6.40;99.90;;;;;;5083598;28;19928;-74
2023/04/19 05:07:36;;;;;;;;;;;6.40;99.90;;;;;;5069802;28;20401;-74
2023/04/19 05:10:02;;;;;;;;;;;6.40;99.90;;;;;;5065669;28;19924;-74
2023/04/19 05:12:27;;;;;;;;;;;6.40;99.90;;;;;;5080509;28;19925;-74
2023/04/19 05:14:53;;;;;;;;;;;6.40;99.90;;;;;;5066060;28;20294;-74
2023/04/19 05:17:18;;;;;;;;;;;6.40;99.90;;;;;;5079411;28;19924;-74
2023/04/19 05:19:44;;;;;;;;;;;6.50;99.90;;;;;;5084376;28;19924;-74
2023/04/19 05:22:10;;;;;;;;;;;6.40;99.90;;;;;;5077706;28;19924;-74
2023/04/19 05:24:35;;;;;;;;;;;6.50;99.90;;;;;;5077941;28;19924;-74
2023/04/19 05:27:01;;;;;;;;;;;6.50;99.90;;;;;;5078271;28;19981;-74
2023/04/19 05:29:26;;;;;;;;;;;6.50;99.90;;;;;;5066297;28;20012;-74
2023/04/19 05:31:52;;;;;;;;;;;6.60;99.90;;;;;;5079700;28;19932;-74
2023/04/19 05:34:17;;;;;;;;;;;6.60;99.90;;;;;;5066535;28;19924;-74
2023/04/19 05:36:43;;;;;;;;;;;6.70;99.90;;;;;;5061019;28;19925;-74
2023/04/19 05:39:08;;;;;;;;;;;6.70;99.90;;;;;;5065930;28;19983;-74
2023/04/19 05:41:34;;;;;;;;;;;6.70;99.90;;;;;;5079042;28;19928;-74
2023/04/19 05:43:59;;;;;;;;;;;6.80;99.90;;;;;;5099758;28;20321;-74
2023/04/19 05:46:25;;;;;;;;;;;6.80;99.90;;;;;;5079022;28;20275;-75
2023/04/19 05:48:51;;;;;;;;;;;6.90;99.90;;;;;;5076372;28;20404;-74
2023/04/19 05:51:17;;;;;;;;;;;6.90;99.90;;;;;;5093730;28;19924;-74
2023/04/19 05:53:43;;;;;;;;;;;7.00;99.90;;;;;;5057791;28;19951;-74
2023/04/19 05:56:09;;;;;;;;;;;7.00;99.90;;;;;;5062042;28;20027;-74
2023/04/19 05:58:35;;;;;;;;;;;7.00;99.90;;;;;;5084981;28;20007;-75
2023/04/19 06:01:01;;;;;;;;;;;7.00;99.90;;;;;;5062716;28;19929;-74
2023/04/19 06:03:27;;;;;;;;;;;7.10;99.90;;;;;;5067014;28;19928;-74
2023/04/19 06:05:52;;;;;;;;;;;7.10;99.90;;;;;;5035103;28;19985;-74
2023/04/19 06:08:18;;;;;;;;;;;7.10;99.90;;;;;;5077274;28;19969;-74
2023/04/19 06:10:46;;;;;;;;;;;7.20;99.90;;;;;;5083475;28;20000;-75
2023/04/19 06:13:12;;;;;;;;;;;7.20;99.90;;;;;;5104272;28;20039;-74
2023/04/19 06:15:38;;;;;;;;;;;7.20;99.90;;;;;;5064540;28;20031;-74
2023/04/19 06:18:08;;;;;;;;;;;7.20;99.90;;;;;;5087650;28;19928;-75
2023/04/19 06:20:35;;;;;;;;;;;7.30;99.90;;;;;;5082267;28;19924;-75
2023/04/19 06:23:00;;;;;;;;;;;7.40;99.90;;;;;;5087685;28;19924;-74
2023/04/19 06:25:26;;;;;;;;;;;7.40;99.90;;;;;;5081796;28;19978;-75
2023/04/19 06:27:51;;;;;;;;;;;7.50;99.90;;;;;;5077119;28;20306;-75
2023/04/19 06:30:17;;;;;;;;;;;7.50;99.90;;;;;;5073200;28;20337;-75
2023/04/19 06:32:42;;;;;;;;;;;7.60;99.90;;;;;;5073105;28;20007;-74
2023/04/19 06:35:08;;;;;;;;;;;7.60;99.90;;;;;;5072572;28;19935;-75
2023/04/19 06:37:34;;;;;;;;;;;7.60;99.90;;;;;;5077580;28;19931;-73
2023/04/19 06:39:59;;;;;;;;;;;7.70;99.90;;;;;;5070081;28;20322;-71
2023/04/19 06:42:26;;;;;;;;;;;7.80;99.90;;;;;;5074085;28;19947;-72
2023/04/19 06:44:52;;;;;;;;;;;7.80;99.90;;;;;;5070910;28;19935;-71
2023/04/19 06:47:17;;;;;;;;;;;7.80;99.90;;;;;;5060131;28;20411;-71
2023/04/19 06:49:43;;;;;;;;;;;7.90;99.90;;;;;;5052286;28;19924;-71
2023/04/19 06:52:09;;;;;;;;;;;7.90;99.90;;;;;;5064455;28;19928;-71
2023/04/19 06:54:34;;;;;;;;;;;7.90;99.90;;;;;;5072173;28;19952;-71
2023/04/19 06:57:01;;;;;;;;;;;8.10;99.90;;;;;;5076714;28;19924;-71
2023/04/19 06:59:27;;;;;;;;;;;8.10;99.90;;;;;;5078947;28;20003;-72
2023/04/19 07:01:52;;;;;;;;;;;8.20;99.90;;;;;;5078469;28;19944;-71
2023/04/19 07:04:18;;;;;;;;;;;8.20;99.90;;;;;;5088400;28;20314;-71
2023/04/19 07:06:47;;;;;;;;;;;8.30;99.90;;;;;;5092890;28;19928;-71
2023/04/19 07:09:12;;;;;;;;;;;8.40;99.90;;;;;;5073072;28;19968;-72
2023/04/19 07:11:38;;;;;;;;;;;8.40;99.90;;;;;;5060691;28;20040;-72
2023/04/19 07:14:03;;;;;;;;;;;8.50;99.90;;;;;;5071715;28;19931;-71
2023/04/19 07:16:29;;;;;;;;;;;8.60;99.90;;;;;;5043566;28;19978;-71
2023/04/19 07:18:54;;;;;;;;;;;8.60;99.90;;;;;;5077483;28;19929;-72
2023/04/19 07:21:20;;;;;;;;;;;8.70;99.90;;;;;;5072726;28;19924;-71
2023/04/19 07:23:46;;;;;;;;;;;8.80;99.90;;;;;;5077795;28;20397;-72
2023/04/19 07:26:13;;;;;;;;;;;8.90;99.90;;;;;;5053939;28;19925;-72
2023/04/19 07:28:39;;;;;;;;;;;9.00;99.90;;;;;;5075568;28;19924;-72
2023/04/19 07:31:05;;;;;;;;;;;9.10;99.90;;;;;;5053344;28;19939;-73
2023/04/19 07:33:31;;;;;;;;;;;9.10;99.90;;;;;;5075987;28;20398;-72
2023/04/19 07:35:56;;;;;;;;;;;9.30;99.90;;;;;;5058569;28;19993;-72
2023/04/19 07:38:22;;;;;;;;;;;9.30;99.90;;;;;;5071250;28;19924;-73
2023/04/19 07:40:47;;;;;;;;;;;9.30;99.90;;;;;;5076683;28;19978;-73
2023/04/19 07:43:13;;;;;;;;;;;9.40;99.90;;;;;;5076434;28;19925;-72
2023/04/19 07:45:39;;;;;;;;;;;9.40;99.90;;;;;;5077008;28;19969;-72
2023/04/19 07:48:05;;;;;;;;;;;9.50;99.90;;;;;;5058810;28;19937;-72
2023/04/19 07:50:30;;;;;;;;;;;9.60;99.90;;;;;;5092792;28;19931;-72
2023/04/19 07:52:56;;;;;;;;;;;9.70;99.90;;;;;;5085495;28;20012;-72
2023/04/19 07:55:21;;;;;;;;;;;9.70;99.90;;;;;;5051748;28;20325;-72
2023/04/19 07:57:47;;;;;;;;;;;9.70;99.90;;;;;;5052796;28;19931;-72
2023/04/19 08:00:14;;;;;;;;;;;9.80;99.90;;;;;;5056714;28;19925;-72
2023/04/19 08:02:46;;;;;;;;;;;9.90;99.90;;;;;;5089017;28;19964;-73
2023/04/19 08:05:12;;;;;;;;;;;9.90;99.90;;;;;;5053838;28;19947;-72
2023/04/19 08:07:38;;;;;;;;;;;10.00;99.90;;;;;;5070497;28;19925;-73
2023/04/19 08:10:05;;;;;;;;;;;10.10;99.90;;;;;;5069659;28;19924;-72
2023/04/19 08:12:30;;;;;;;;;;;10.10;99.90;;;;;;5055316;28;19928;-72
2023/04/19 08:14:56;;;;;;;;;;;10.20;99.90;;;;;;5071950;28;19981;-72
2023/04/19 08:17:23;;;;;;;;;;;10.30;99.90;;;;;;5081303;28;19993;-73
2023/04/19 08:19:49;;;;;;;;;;;10.40;99.90;;;;;;5053049;28;19931;-72
2023/04/19 08:22:16;;;;;;;;;;;10.40;99.90;;;;;;5071260;28;19924;-73
2023/04/19 08:24:41;;;;;;;;;;;10.60;99.90;;;;;;5087687;28;19924;-72
2023/04/19 08:27:08;;;;;;;;;;;10.60;99.90;;;;;;5089101;28;19935;-73
2023/04/19 08:29:33;;;;;;;;;;;10.70;99.90;;;;;;5044570;28;19924;-72
2023/04/19 08:32:00;;;;;;;;;;;10.80;99.90;;;;;;5068489;28;19925;-72
2023/04/19 08:34:26;;;;;;;;;;;10.90;99.90;;;;;;5084908;28;19924;-73
2023/04/19 08:36:52;;;;;;;;;;;11.00;99.90;;;;;;5051977;28;19952;-73
2023/04/19 08:39:17;;;;;;;;;;;11.10;99.90;;;;;;5070170;28;19928;-72
2023/04/19 08:41:43;;;;;;;;;;;11.10;99.90;;;;;;5070721;28;19928;-73
2023/04/19 08:44:10;;;;;;;;;;;11.20;99.90;;;;;;5068121;28;19970;-73
2023/04/19 08:46:36;;;;;;;;;;;11.40;99.90;;;;;;5036215;28;19925;-73
2023/04/19 08:49:03;;;;;;;;;;;11.40;99.10;;;;;;5060383;28;19982;-73
2023/04/19 08:51:30;;;;;;;;;;;11.40;99.40;;;;;;5087336;28;19930;-73
2023/04/19 08:53:56;;;;;;;;;;;11.50;99.20;;;;;;5088646;28;19931;-72
2023/04/19 08:56:22;;;;;;;;;;;11.50;97.60;;;;;;5068916;28;19932;-73
2023/04/19 08:58:48;;;;;;;;;;;11.60;97.50;;;;;;5071421;28;19930;-73
2023/04/19 09:01:13;;;;;;;;;;;11.70;97.20;;;;;;5086366;28;21605;-72
2023/04/19 09:03:44;;;;;;;;;;;11.80;96.30;;;;;;5067967;28;19968;-73
2023/04/19 09:06:10;;;;;;;;;;;11.90;96.20;;;;;;5067008;28;19930;-73
2023/04/19 09:08:37;;;;;;;;;;;12.00;96.10;;;;;;5062264;28;19924;-73
2023/04/19 09:11:02;;;;;;;;;;;12.10;95.80;;;;;;5080908;28;20007;-72
2023/04/19 09:13:28;;;;;;;;;;;12.20;95.10;;;;;;5084329;28;20330;-72
2023/04/19 09:15:55;;;;;;;;;;;12.30;94.60;;;;;;5086920;28;20333;-73
2023/04/19 09:18:21;;;;;;;;;;;12.40;93.40;;;;;;5089274;28;19935;-73
2023/04/19 09:20:48;;;;;;;;;;;12.40;92.70;;;;;;5068467;28;19924;-73
2023/04/19 09:23:14;;;;;;;;;;;12.70;93.90;;;;;;5087266;28;20282;-73
2023/04/19 09:26:00;;;;;;;;;;;13.40;90.00;;;;;;5066656;28;20015;-73
2023/04/19 09:28:26;;;;;;;;;;;13.90;85.60;;;;;;5068504;28;19928;-73
2023/04/19 09:30:52;;;;;;;;;;;14.50;85.10;;;;;;5083038;28;19928;-73
2023/04/19 09:33:30;;;;;;;;;;;14.90;78.30;;;;;;5065830;28;20026;-73
2023/04/19 09:35:55;;;;;;;;;;;15.30;77.30;;;;;;5065181;28;20282;-73
2023/04/19 09:38:21;;;;;;;;;;;15.60;77.10;;;;;;5066593;28;19931;-73
2023/04/19 09:40:48;;;;;;;;;;;15.90;72.90;;;;;;5098863;28;19932;-72
2023/04/19 09:43:22;;;;;;;;;;;16.00;72.20;;;;;;5050553;28;20298;-73
2023/04/19 09:45:47;;;;;;;;;;;16.20;74.00;;;;;;5047179;28;20374;-73
2023/04/19 09:48:13;;;;;;;;;;;16.50;75.40;;;;;;5069493;28;19924;-72
2023/04/19 09:50:52;;;;;;;;;;;16.80;70.00;;;;;;5053126;28;20010;-74
2023/04/19 09:53:18;;;;;;;;;;;16.90;72.00;;;;;;5101693;28;20364;-74
2023/04/19 09:55:45;;;;;;;;;;;17.10;68.70;;;;;;5062318;28;19925;-74
2023/04/19 09:58:11;;;;;;;;;;;17.20;67.50;;;;;;5064285;28;20529;-74
2023/04/19 10:00:37;;;;;;;;;;;17.10;67.20;;;;;;5102566;28;19925;-72
2023/04/19 10:03:03;;;;;;;;;;;17.20;63.80;;;;;;5062939;28;19940;-72
2023/04/19 10:05:29;;;;;;;;;;;17.20;61.40;;;;;;5056802;28;19978;-73
2023/04/19 10:07:58;;;;;;;3.63;0.50;;;17.20;65.20;;;;;;5088500;28;19925;-73
2023/04/19 10:10:23;;;;;;;;;;;17.50;68.20;;;;;;5052527;28;20067;-73
2023/04/19 10:12:51;;;;;;;;;;;17.70;67.20;;;;;;5053068;28;20546;-73
2023/04/19 10:15:18;;;;;;;;;;;18.00;66.30;;;;;;5036197;28;19943;-73
2023/04/19 10:17:44;;;;;;;;;;;18.10;63.20;;;;;;5056368;28;19921;-72
2023/04/19 10:20:16;;;;;;;;;;;18.10;63.10;;;;;;5052774;28;20377;-73
2023/04/19 10:22:41;;;;;;;;;;;18.00;62.50;;;;;;5053644;28;19966;-73
2023/04/19 10:25:08;;;;;;;;;;;18.00;63.00;;;;;;5053959;28;19925;-74
2023/04/19 10:27:34;;;;;;;3.58;0.60;;;18.10;61.20;;;;;;5036683;28;20165;-73
2023/04/19 10:30:02;;;;;;;2.53;0.40;;;18.20;63.00;;;;;;5052591;28;20411;-73
2023/04/19 10:32:29;;;;;;;;;;;18.40;62.80;;;;;;5063117;28;20044;-73
2023/04/19 10:35:00;;;;;;;3.00;0.60;;;18.50;61.60;;;;;;5048547;28;20409;-73
2023/04/19 10:37:25;;;;;;;1.60;0.60;;;18.50;59.90;;;;;;5084796;28;20403;-73
2023/04/19 10:39:51;;;;;;;1.30;0.47;;;18.50;62.30;;;;;;5086469;28;20755;-73
2023/04/19 10:42:17;;;;;;;4.05;0.85;;;18.50;60.10;;;;;;5069880;28;20399;-73
2023/04/19 10:45:28;;;;;;;6.60;0.75;;;18.40;58.50;;;;;;5068812;28;20453;-73
2023/04/19 10:47:54;;;;;;;;;;;18.30;59.20;;;;;;5070510;28;20044;-72
2023/04/19 10:50:22;;;;;;;;;;;18.30;59.50;;;;;;5053367;28;19947;-72
2023/04/19 10:52:48;;;;;;;;;;;18.40;59.10;;;;;;5053923;28;20421;-74
2023/04/19 10:55:18;;;;;;;;;;;18.40;58.70;;;;;;5085235;28;19924;-74
2023/04/19 10:58:02;;;;;;;;;;;18.30;58.90;;;;;;5052400;28;20401;-74
2023/04/19 11:00:31;;;;;;;6.22;0.70;;;18.30;58.90;;;;;;5068911;28;19920;-74
2023/04/19 11:03:20;;;;;;;20.60;2.10;;;18.20;56.80;;;;;;5033300;28;20543;-73
2023/04/19 11:06:15;;;;;;;8.32;1.02;;;18.00;58.00;;;;;;5048358;28;20449;-72
2023/04/19 11:08:43;;;;;;;3.58;0.93;;;17.90;56.70;;;;;;5060301;28;20484;-72
2023/04/19 11:11:09;;;;;;;5.00;1.00;;;18.10;57.30;;;;;;5047175;28;20416;-73
2023/04/19 11:13:36;;;;;;;;;;;18.20;58.90;;;;;;5051430;28;20036;-73
2023/04/19 11:16:07;;;;;;;;;;;18.30;57.30;;;;;;5052213;28;19928;-72
2023/04/19 11:18:32;;;;;;;;;;;18.40;57.60;;;;;;5068899;28;19921;-75
2023/04/19 11:20:59;;;;;;;3.22;0.90;;;18.50;58.20;;;;;;5069834;28;19970;-72
2023/04/19 11:23:25;;;;;;;3.47;0.93;;;18.50;55.90;;;;;;5050430;28;20416;-73
2023/04/19 11:25:51;;;;;;;2.60;0.98;;;18.60;59.80;;;;;;5050198;28;20499;-73
2023/04/19 11:28:17;;;;;;;;;;;18.70;57.50;;;;;;5053101;28;20421;-73
2023/04/19 11:30:43;;;;;;;;;;;18.70;59.60;;;;;;5071093;28;20038;-72
2023/04/19 11:33:11;;;;;;;;;;;18.80;61.10;;;;;;5074231;28;20015;-73
2023/04/19 11:35:36;;;;;;;;;;;19.00;58.00;;;;;;5053658;28;19999;-72
2023/04/19 11:38:04;;;;;;;;;;;19.10;57.30;;;;;;5071479;28;20014;-72
2023/04/19 11:40:30;;;;;;;;;;;19.00;57.00;;;;;;5054703;28;20989;-73
2023/04/19 11:42:56;;;;;;;;;;;19.20;59.90;;;;;;5087251;28;19924;-73
2023/04/19 11:45:28;;;;;;;3.50;0.83;;;19.20;58.70;;;;;;5052860;28;19920;-72
2023/04/19 11:47:54;;;;;;;3.33;1.20;;;19.20;58.10;;;;;;5068578;28;20419;-72
2023/04/19 11:50:40;;;;;;;2.25;0.90;;;19.30;56.40;;;;;;5069374;28;20905;-72
2023/04/19 11:53:21;;;;;;;2.90;1.00;;;19.40;55.20;;;;;;5052840;28;20786;-72
2023/04/19 11:56:03;;;;;;;3.35;1.30;;;19.40;59.90;;;;;;5069158;28;20423;-72
2023/04/19 11:58:40;;;;;;;;;;;19.60;59.40;;;;;;5086987;28;20123;-73
2023/04/19 12:01:11;;;;;;;2.30;1.20;;;19.60;59.40;;;;;;5060379;28;19928;-73
2023/04/19 12:03:40;;;;;;;;;;;19.60;59.70;;;;;;5080353;28;20075;-73
2023/04/19 12:06:09;;;;;;;;;;;19.70;60.20;;;;;;5073776;28;19924;-73
2023/04/19 12:08:36;;;;;;;;;;;19.80;60.30;;;;;;5035714;28;20003;-73
2023/04/19 12:11:02;;;;;;;;;;;19.90;59.30;;;;;;5069276;28;20506;-73
2023/04/19 12:13:29;;;;;;;;;;;19.90;57.50;;;;;;5070240;28;19928;-73
2023/04/19 12:15:55;;;;;;;;;;;19.90;58.20;;;;;;5044317;28;19920;-73
2023/04/19 12:18:21;;;;;;;;;;;19.90;58.10;;;;;;5089683;28;19969;-73
2023/04/19 12:20:47;;;;;;;;;;;19.90;58.00;;;;;;5101694;28;20386;-73
2023/04/19 12:23:14;;;;;;;2.88;1.35;;;19.80;56.30;;;;;;5085057;28;19924;-73
2023/04/19 12:25:41;;;;;;;3.47;1.50;;;19.80;57.70;;;;;;5060604;28;20423;-73
2023/04/19 12:28:08;;;;;;;2.80;1.40;;;19.80;58.30;;;;;;5070471;28;20404;-73
2023/04/19 12:30:36;;;;;;;3.13;1.27;;;19.70;56.50;;;;;;5083902;28;20415;-73
2023/04/19 12:33:02;;;;;;;3.90;1.70;;;19.70;58.70;;;;;;5077577;28;20410;-73
2023/04/19 12:35:30;;;;;;;3.63;1.30;;;19.70;56.80;;;;;;5084587;28;20473;-73
2023/04/19 12:37:57;;;;;;;2.63;1.40;;;19.70;55.90;;;;;;5054597;28;20866;-73
2023/04/19 12:40:24;;;;;;;15.00;1.98;;;19.70;56.90;;;;;;5063708;28;21270;-72
2023/04/19 12:42:50;;;;;;;3.33;1.55;;;19.70;56.60;;;;;;5081905;28;20470;-72
2023/04/19 12:45:16;;;;;;;;;;;19.90;57.90;;;;;;5073375;28;20041;-72
2023/04/19 12:47:42;;;;;;;;;;;20.10;56.00;;;;;;5079289;28;19926;-73
2023/04/19 12:50:08;;;;;;;;;;;20.30;56.60;;;;;;5067289;28;19924;-72
2023/04/19 12:52:34;;;;;;;;;;;20.40;55.60;;;;;;5062977;28;19990;-73
2023/04/19 12:55:00;;;;;;;2.50;1.23;;;20.30;55.10;;;;;;5068880;28;20283;-72
2023/04/19 12:57:25;;;;;;;3.20;1.30;;;20.30;54.20;;;;;;5058284;28;20933;-72
2023/04/19 12:59:51;;;;;;;4.38;1.40;;;20.40;55.90;;;;;;5064117;28;20462;-73
2023/04/19 13:02:17;;;;;;;3.20;1.58;;;20.50;55.50;;;;;;5077851;28;20040;-73
2023/04/19 13:04:42;;;;;;;4.90;1.60;;;20.70;55.20;;;;;;5039394;28;20039;-71
2023/04/19 13:07:08;;;;;;;4.47;1.88;;;20.70;54.40;;;;;;5033805;28;20048;-72
2023/04/19 13:09:34;;;;;;;;;;;20.90;55.90;;;;;;5050285;28;20061;-72
2023/04/19 13:12:00;;;;;;;;;;;21.20;56.30;;;;;;5066715;28;20294;-73
2023/04/19 13:14:26;;;;;;;;;;;21.10;56.10;;;;;;5050381;28;20307;-72
2023/04/19 13:16:51;;;;;;;;;;;21.20;56.10;;;;;;5083382;28;20413;-72
2023/04/19 13:19:17;;;;;;;;;;;21.40;55.30;;;;;;5075837;28;19971;-73
2023/04/19 13:21:43;;;;;;;;;;;21.70;54.10;;;;;;5094375;28;19928;-72
2023/04/19 13:24:08;;;;;;;;;;;21.50;53.00;;;;;;5082530;28;19960;-73
2023/04/19 13:26:34;;;;;;;;;;;21.60;54.40;;;;;;5084762;28;19927;-73
2023/04/19 13:28:59;;;;;;;;;;;21.60;54.20;;;;;;5057881;28;19920;-72
2023/04/19 13:31:25;;;;;;;;;;;21.60;52.40;;;;;;5084717;28;19985;-73
2023/04/19 13:33:51;;;;;;;;;;;21.40;53.10;;;;;;5062273;28;19931;-72
2023/04/19 13:36:17;;;;;;;4.15;1.60;;;21.50;53.10;;;;;;5066902;28;20015;-72
2023/04/19 13:38:44;;;;;;;4.85;1.90;;;21.60;53.80;;;;;;5056537;28;20410;-72
2023/04/19 13:41:09;;;;;;;4.03;1.70;;;21.70;52.20;;;;;;5085730;28;20829;-73
2023/04/19 13:43:35;;;;;;;4.00;1.70;;;21.70;51.50;;;;;;5055710;28;20044;-72
2023/04/19 13:46:01;;;;;;;4.77;1.57;;;21.70;51.00;;;;;;5070978;28;20404;-71
2023/04/19 13:48:27;;;;;;;4.53;1.70;;;21.80;52.70;;;;;;5089617;28;20402;-71
2023/04/19 13:50:54;;;;;;;3.97;1.92;;;22.00;53.30;;;;;;5034902;28;20487;-71
2023/04/19 13:53:20;;;;;;;3.13;1.80;;;22.10;51.00;;;;;;5088204;28;20442;-72
2023/04/19 13:55:46;;;;;;;5.18;1.98;;;22.00;50.40;;;;;;5072177;28;20470;-72
2023/04/19 13:58:12;;;;;;;4.00;2.10;;;22.00;51.90;;;;;;5055494;28;20414;-72
2023/04/19 14:00:37;;;;;;;3.33;2.10;;;22.00;52.10;;;;;;5071739;28;20415;-71
2023/04/19 14:03:03;;;;;;;7.43;2.22;;;22.00;52.80;;;;;;5036552;28;20434;-72
2023/04/19 14:05:29;;;;;;;5.75;1.98;;;22.00;52.90;;;;;;5079673;28;21089;-72